Time;durP1;ratioP1;P1;durP2;ratioP2;P2;SDS_P1;SDS_P2;PMS_P1;PMS_P2;Temp;Humidity;BMP_temperature;BMP_pressure;BME280_temperature;BME280_humidity;BME280_pressure;Samples;Min_cycle;Max_cycle;Signal;HPM_P1;HPM_P2
2023/03/04 00:00:41;;;;;;;;;;;;;;;;;;5053063;28;19908;-74
2023/03/04 00:03:09;;;;;;;;;;;;;;;;;;5053077;28;19909;-74
2023/03/04 00:05:35;;;;;;;;;;;;;;;;;;5052938;28;19904;-74
2023/03/04 00:08:01;;;;;;;;;;;;;;;;;;5051614;28;19901;-72
2023/03/04 00:10:27;;;;;;;;;;;;;;;;;;5052836;28;19905;-73
2023/03/04 00:12:53;;;;;;;;;;;;;;;;;;5052851;28;19912;-71
2023/03/04 00:15:19;;;;;;;;;;;;;;;;;;5052743;28;19915;-73
2023/03/04 00:17:45;;;;;;;;;;;;;;;;;;5051284;28;19908;-74
2023/03/04 00:20:11;;;;;;;;;;;;;;;;;;5052491;28;19917;-73
2023/03/04 00:22:37;;;;;;;;;;;;;;;;;;5052508;28;19912;-73
2023/03/04 00:25:03;;;;;;;;;;;;;;;;;;5052493;28;19904;-74
2023/03/04 00:27:29;;;;;;;;;;;;;;;;;;5052792;28;19905;-74
2023/03/04 00:29:55;;;;;;;;;;;;;;;;;;5052282;28;19955;-74
2023/03/04 00:32:21;;;;;;;;;;;;;;;;;;5052548;28;20281;-74
2023/03/04 00:34:46;;;;;;;;;;;;;;;;;;5052112;28;20439;-72
2023/03/04 00:37:13;;;;;;;;;;;;;;;;;;5052220;28;19916;-73
2023/03/04 00:39:38;;;;;;;;;;;;;;;;;;5052706;28;19909;-72
2023/03/04 00:42:04;;;;;;;;;;;;;;;;;;5052276;28;20528;-72
2023/03/04 00:44:30;;;;;;;;;;;;;;;;;;5052214;28;20317;-73
2023/03/04 00:46:56;;;;;;;;;;;;;;;;;;5051957;28;19912;-73
2023/03/04 00:49:22;;;;;;;;;;;;;;;;;;5052108;28;19959;-74
2023/03/04 00:51:48;;;;;;;;;;;;;;;;;;5052114;28;19904;-72
2023/03/04 00:54:14;;;;;;;;;;;;;;;;;;5051183;28;20308;-72
2023/03/04 00:56:40;;;;;;;;;;;;;;;;;;5051918;28;19919;-73
2023/03/04 00:59:06;;;;;;;;;;;;;;;;;;5051921;28;19912;-73
2023/03/04 01:01:32;;;;;;;;;;;;;;;;;;5052064;28;20387;-73
2023/03/04 01:03:57;;;;;;;;;;;;;;;;;;5051749;28;19967;-74
2023/03/04 01:06:23;;;;;;;;;;;;;;;;;;5051734;28;19951;-72
2023/03/04 01:08:49;;;;;;;;;;;;;;;;;;5051873;28;19951;-70
2023/03/04 01:11:15;;;;;;;;;;;;;;;;;;5051737;28;20260;-72
2023/03/04 01:13:41;;;;;;;;;;;;;;;;;;5051659;28;19905;-71
2023/03/04 01:16:08;;;;;;;;;;;;;;;;;;5051787;28;20273;-73
2023/03/04 01:18:34;;;;;;;;;;;;;;;;;;5051434;28;19913;-72
2023/03/04 01:21:00;;;;;;;;;;;;;;;;;;5051754;28;19915;-72
2023/03/04 01:23:26;;;;;;;;;;;;;;;;;;5051353;28;20341;-73
2023/03/04 01:25:52;;;;;;;;;;;;;;;;;;5051557;28;19966;-73
2023/03/04 01:28:18;;;;;;;;;;;;;;;;;;5051707;28;19987;-73
2023/03/04 01:30:44;;;;;;;;;;;;;;;;;;5051573;28;19951;-73
2023/03/04 01:33:10;;;;;;;;;;;;;;;;;;5051544;28;20384;-74
2023/03/04 01:35:36;;;;;;;;;;;;;;;;;;5051495;28;19920;-74
2023/03/04 01:38:02;;;;;;;;;;;;;;;;;;5050053;28;20003;-72
2023/03/04 01:40:28;;;;;;;;;;;;;;;;;;5051394;28;19911;-73
2023/03/04 01:42:53;;;;;;;;;;;;;;;;;;5051297;28;20030;-73
2023/03/04 01:45:19;;;;;;;;;;;;;;;;;;5051578;28;19905;-73
2023/03/04 01:47:47;;;;;;;;;;;;;;;;;;5051369;28;19992;-72
2023/03/04 01:50:13;;;;;;;;;;;;;;;;;;5051174;28;19905;-72
2023/03/04 01:52:39;;;;;;;;;;;;;;;;;;5051428;28;19905;-73
2023/03/04 01:55:05;;;;;;;;;;;;;;;;;;5051231;28;19913;-73
2023/03/04 01:57:30;;;;;;;;;;;;;;;;;;5051428;28;19919;-73
2023/03/04 01:59:56;;;;;;;;;;;;;;;;;;5051369;28;19905;-73
2023/03/04 02:02:22;;;;;;;;;;;;;;;;;;5051319;28;20273;-73
2023/03/04 02:04:48;;;;;;;;;;;;;;;;;;5052641;28;20374;-73
2023/03/04 02:07:14;;;;;;;;;;;;;;;;;;5055190;28;19912;-73
2023/03/04 02:09:40;;;;;;;;;;;;;;;;;;5055291;28;19908;-72
2023/03/04 02:12:06;;;;;;;;;;;;;;;;;;5055270;28;20325;-72
2023/03/04 02:14:32;;;;;;;;;;;;;;;;;;5055059;28;19990;-73
2023/03/04 02:16:58;;;;;;;;;;;;;;;;;;5054935;28;19960;-73
2023/03/04 02:19:24;;;;;;;;;;;;;;;;;;5054847;28;19916;-74
2023/03/04 02:21:49;;;;;;;;;;;;;;;;;;5054758;28;19913;-72
2023/03/04 02:24:15;;;;;;;;;;;;;;;;;;5054857;28;19911;-73
2023/03/04 02:26:42;;;;;;;;;;;;;;;;;;5054883;28;19984;-72
2023/03/04 02:29:08;;;;;;;;;;;;;;;;;;5054512;28;19908;-74
2023/03/04 02:31:34;;;;;;;;;;;;;;;;;;5054948;28;19905;-74
2023/03/04 02:34:00;;;;;;;;;;;;;;;;;;5054705;28;19908;-73
2023/03/04 02:36:26;;;;;;;;;;;;;;;;;;5054824;28;20339;-73
2023/03/04 02:38:52;;;;;;;;;;;;;;;;;;5054779;28;20261;-73
2023/03/04 02:41:17;;;;;;;;;;;;;;;;;;5054580;28;19999;-73
2023/03/04 02:43:43;;;;;;;;;;;;;;;;;;5054480;28;19905;-73
2023/03/04 02:46:09;;;;;;;;;;;;;;;;;;5054569;28;19951;-73
2023/03/04 02:48:35;;;;;;;;;;;;;;;;;;5054391;28;19976;-74
2023/03/04 02:51:01;;;;;;;;;;;;;;;;;;5054414;28;19928;-73
2023/03/04 02:53:27;;;;;;;;;;;;;;;;;;5054417;28;19905;-73
2023/03/04 02:55:53;;;;;;;;;;;;;;;;;;5054281;28;19913;-73
2023/03/04 02:58:19;;;;;;;;;;;;;;;;;;5054236;28;20318;-73
2023/03/04 03:00:45;;;;;;;;;;;;;;;;;;5054189;28;19904;-72
2023/03/04 03:03:11;;;;;;;;;;;;;;;;;;5054363;28;19904;-73
2023/03/04 03:05:37;;;;;;;;;;;;;;;;;;5054147;28;19946;-73
2023/03/04 03:08:03;;;;;;;;;;;;;;;;;;5054188;28;20042;-73
2023/03/04 03:10:29;;;;;;;;;;;;;;;;;;5054003;28;20435;-73
2023/03/04 03:12:54;;;;;;;;;;;;;;;;;;5054123;28;20007;-73
2023/03/04 03:15:20;;;;;;;;;;;;;;;;;;5053779;28;19909;-73
2023/03/04 03:17:46;;;;;;;;;;;;;;;;;;5052991;28;20504;-72
2023/03/04 03:20:12;;;;;;;;;;;;;;;;;;5053753;28;19920;-73
2023/03/04 03:22:38;;;;;;;;;;;;;;;;;;5053695;28;19912;-70
2023/03/04 03:25:04;;;;;;;;;;;;;;;;;;5053758;28;19904;-71
2023/03/04 03:27:30;;;;;;;;;;;;;;;;;;5053635;28;19950;-73
2023/03/04 03:29:56;;;;;;;;;;;;;;;;;;5053713;28;20442;-73
2023/03/04 03:32:22;;;;;;;;;;;;;;;;;;5053548;28;19962;-73
2023/03/04 03:34:47;;;;;;;;;;;;;;;;;;5053560;28;19905;-72
2023/03/04 03:37:13;;;;;;;;;;;;;;;;;;5053484;28;20491;-72
2023/03/04 03:39:39;;;;;;;;;;;;;;;;;;5053410;28;19905;-73
2023/03/04 03:42:05;;;;;;;;;;;;;;;;;;5053452;28;19916;-73
2023/03/04 03:44:31;;;;;;;;;;;;;;;;;;5053182;28;20276;-73
2023/03/04 03:46:57;;;;;;;;;;;;;;;;;;5053403;28;19904;-72
2023/03/04 03:49:23;;;;;;;;;;;;;;;;;;5053221;28;19904;-73
2023/03/04 03:51:49;;;;;;;;;;;;;;;;;;5053301;28;20293;-72
2023/03/04 03:54:15;;;;;;;;;;;;;;;;;;5053196;28;20412;-73
2023/03/04 03:56:41;;;;;;;;;;;;;;;;;;5053027;28;19913;-73
2023/03/04 03:59:06;;;;;;;;;;;;;;;;;;5053245;28;19904;-73
2023/03/04 04:01:32;;;;;;;;;;;;;;;;;;5052970;28;19932;-74
2023/03/04 04:03:58;;;;;;;;;;;;;;;;;;5053152;28;19904;-73
2023/03/04 04:06:24;;;;;;;;;;;;;;;;;;5052953;28;19965;-73
2023/03/04 04:08:50;;;;;;;;;;;;;;;;;;5053063;28;19911;-73
2023/03/04 04:11:16;;;;;;;;;;;;;;;;;;5052878;28;19904;-73
2023/03/04 04:13:42;;;;;;;;;;;;;;;;;;5052847;28;19904;-71
2023/03/04 04:16:08;;;;;;;;;;;;;;;;;;5052709;28;19952;-72
2023/03/04 04:18:34;;;;;;;;;;;;;;;;;;5052552;28;19909;-72
2023/03/04 04:21:00;;;;;;;;;;;;;;;;;;5052877;28;19977;-74
2023/03/04 04:23:26;;;;;;;;;;;;;;;;;;5052700;28;19916;-73
2023/03/04 04:25:52;;;;;;;;;;;;;;;;;;5052681;28;19931;-73
2023/03/04 04:28:18;;;;;;;;;;;;;;;;;;5051607;28;20414;-73
2023/03/04 04:30:44;;;;;;;;;;;;;;;;;;5052282;28;19911;-74
2023/03/04 04:33:09;;;;;;;;;;;;;;;;;;5052595;28;19905;-74
2023/03/04 04:35:37;;;;;;;;;;;;;;;;;;5052299;28;20365;-73
2023/03/04 04:38:03;;;;;;;;;;;;;;;;;;5052226;28;19916;-70
2023/03/04 04:40:29;;;;;;;;;;;;;;;;;;5052478;28;19905;-73
2023/03/04 04:42:55;;;;;;;;;;;;;;;;;;5052318;28;19908;-74
2023/03/04 04:45:23;;;;;;;;;;;;;;;;;;5052320;28;19905;-73
2023/03/04 04:47:49;;;;;;;;;;;;;;;;;;5052522;28;19912;-72
2023/03/04 04:50:15;;;;;;;;;;;;;;;;;;5052101;28;19908;-73
2023/03/04 04:52:41;;;;;;;;;;;;;;;;;;5052039;28;20372;-73
2023/03/04 04:55:07;;;;;;;;;;;;;;;;;;5051962;28;19951;-73
2023/03/04 04:57:33;;;;;;;;;;;;;;;;;;5052021;28;19909;-73
2023/03/04 04:59:59;;;;;;;;;;;;;;;;;;5051906;28;19909;-74
2023/03/04 05:02:25;;;;;;;;;;;;;;;;;;5052012;28;19931;-74
2023/03/04 05:04:51;;;;;;;;;;;;;;;;;;5051750;28;19909;-73
2023/03/04 05:07:16;;;;;;;;;;;;;;;;;;5051900;28;19927;-73
2023/03/04 05:09:42;;;;;;;;;;;;;;;;;;5051928;28;20281;-72
2023/03/04 05:12:08;;;;;;;;;;;;;;;;;;5051848;28;19904;-72
2023/03/04 05:14:34;;;;;;;;;;;;;;;;;;5051705;28;20349;-73
2023/03/04 05:17:00;;;;;;;;;;;;;;;;;;5051637;28;19920;-72
2023/03/04 05:19:26;;;;;;;;;;;;;;;;;;5051658;28;19917;-72
2023/03/04 05:21:52;;;;;;;;;;;;;;;;;;5051676;28;20372;-73
2023/03/04 05:24:18;;;;;;;;;;;;;;;;;;5051656;28;19908;-72
2023/03/04 05:26:44;;;;;;;;;;;;;;;;;;5051536;28;19959;-72
2023/03/04 05:29:10;;;;;;;;;;;;;;;;;;5051597;28;20481;-73
2023/03/04 05:31:35;;;;;;;;;;;;;;;;;;5051811;28;19904;-74
2023/03/04 05:34:01;;;;;;;;;;;;;;;;;;5051476;28;19927;-74
2023/03/04 05:36:27;;;;;;;;;;;;;;;;;;5051423;28;19913;-72
2023/03/04 05:38:53;;;;;;;;;;;;;;;;;;5051016;28;19908;-72
2023/03/04 05:41:21;;;;;;;;;;;;;;;;;;5051404;28;19999;-73
2023/03/04 05:43:47;;;;;;;;;;;;;;;;;;5051502;28;20018;-73
2023/03/04 05:46:13;;;;;;;;;;;;;;;;;;5051222;28;20408;-72
2023/03/04 05:48:39;;;;;;;;;;;;;;;;;;5051435;28;20004;-73
2023/03/04 05:51:05;;;;;;;;;;;;;;;;;;5051352;28;20322;-72
2023/03/04 05:53:31;;;;;;;;;;;;;;;;;;5051193;28;20322;-70
2023/03/04 05:56:00;;;;;;;;;;;;;;;;;;5051332;28;19940;-73
2023/03/04 05:58:26;;;;;;;;;;;;;;;;;;5051196;28;19905;-72
2023/03/04 06:00:52;;;;;;;;;;;;;;;;;;5051648;28;19983;-73
2023/03/04 06:03:18;;;;;;;;;;;;;;;;;;5051347;28;19901;-74
2023/03/04 06:05:44;;;;;;;;;;;;;;;;;;5050948;28;19920;-73
2023/03/04 06:08:10;;;;;;;;;;;;;;;;;;5049947;28;19912;-72
2023/03/04 06:10:36;;;;;;;;;;;;;;;;;;5051297;28;20529;-74
2023/03/04 06:13:02;;;;;;;;;;;;;;;;;;5048888;28;19915;-71
2023/03/04 06:15:28;;;;;;;;;;;;;;;;;;5046943;28;19919;-73
2023/03/04 06:17:54;;;;;;;;;;;;;;;;;;5051101;28;20441;-71
2023/03/04 06:20:20;;;;;;;;;;;;;;;;;;5051061;28;20495;-72
2023/03/04 06:22:45;;;;;;;;;;;;;;;;;;5050968;28;19909;-73
2023/03/04 06:25:11;;;;;;;;;;;;;;;;;;5051104;28;19905;-72
2023/03/04 06:27:37;;;;;;;;;;;;;;;;;;5051179;28;20388;-75
2023/03/04 06:30:03;;;;;;;;;;;;;;;;;;5050896;28;19911;-72
2023/03/04 06:32:29;;;;;;;;;;;;;;;;;;5050989;28;19911;-74
2023/03/04 06:34:55;;;;;;;;;;;;;;;;;;5050906;28;19996;-74
2023/03/04 06:37:21;;;;;;;;;;;;;;;;;;5050906;28;19912;-73
2023/03/04 06:39:47;;;;;;;;;;;;;;;;;;5045912;28;19909;-73
2023/03/04 06:42:13;;;;;;;;;;;;;;;;;;5039755;28;19913;-71
2023/03/04 06:44:39;;;;;;;;;;;;;;;;;;5049629;28;20487;-71
2023/03/04 06:47:04;;;;;;;;;;;;;;;;;;5049076;28;19962;-74
2023/03/04 06:49:30;;;;;;;;;;;;;;;;;;5050905;28;19950;-73
2023/03/04 06:51:56;;;;;;;;;;;;;;;;;;5051019;28;19947;-73
2023/03/04 06:54:22;;;;;;;;;;;;;;;;;;5054231;28;19987;-73
2023/03/04 06:56:48;;;;;;;;;;;;;;;;;;5051367;28;19921;-73
2023/03/04 06:59:14;;;;;;;;;;;;;;;;;;5053948;28;19905;-73
2023/03/04 07:01:40;;;;;;;;;;;;;;;;;;5040630;28;20350;-72
2023/03/04 07:04:06;;;;;;;;;;;;;;;;;;5034224;28;19908;-74
2023/03/04 07:06:32;;;;;;;;;;;;;;;;;;5034087;28;19901;-73
2023/03/04 07:08:58;;;;;;;;;;;;;;;;;;5032374;28;19905;-73
2023/03/04 07:11:24;;;;;;;;;;;;;;;;;;5033294;28;20011;-74
2023/03/04 07:13:50;;;;;;;;;;;;;;;;;;5032235;28;19928;-73
2023/03/04 07:16:16;;;;;;;;;;;;;;;;;;5042868;28;19917;-72
2023/03/04 07:18:42;;;;;;;;;;;;;;;;;;5051853;28;20514;-73
2023/03/04 07:21:08;;;;;;;;;;;;;;;;;;5052004;28;19909;-73
2023/03/04 07:23:34;;;;;;;;;;;;;;;;;;5051778;28;19904;-73
2023/03/04 07:26:00;;;;;;;;;;;;;;;;;;5053883;28;19999;-73
2023/03/04 07:28:26;;;;;;;;;;;;;;;;;;5053690;28;20007;-74
2023/03/04 07:30:52;;;;;;;;;;;;;;;;;;5038121;28;20479;-74
2023/03/04 07:33:17;;;;;;;;;;;;;;;;;;5033560;28;19912;-73
2023/03/04 07:35:43;;;;;;;;;;;;;;;;;;5031858;28;19920;-74
2023/03/04 07:38:09;;;;;;;;;;;;;;;;;;5052366;28;19905;-73
2023/03/04 07:40:35;;;;;;;;;;;;;;;;;;5042848;28;19905;-72
2023/03/04 07:43:01;;;;;;;;;;;;;;;;;;5033498;28;19912;-73
2023/03/04 07:45:27;;;;;;;;;;;;;;;;;;5033394;28;19905;-73
2023/03/04 07:47:53;;;;;;;;;;;;;;;;;;5033340;28;19977;-73
2023/03/04 07:50:19;;;;;;;;;;;;;;;;;;5034569;28;19974;-73
2023/03/04 07:52:45;;;;;;;;;;;;;;;;;;5048369;28;19912;-72
2023/03/04 07:55:11;;;;;;;;;;;;;;;;;;5051902;28;20357;-72
2023/03/04 07:57:37;;;;;;;;;;;;;;;;;;5053193;28;19908;-72
2023/03/04 08:00:03;;;;;;;;;;;;;;;;;;5049817;28;20385;-72
2023/03/04 08:02:29;;;;;;;;;;;;;;;;;;5052646;28;19905;-74
2023/03/04 08:04:54;;;;;;;;;;;;;;;;;;5052908;28;19905;-70
2023/03/04 08:07:20;;;;;;;;;;;;;;;;;;5052875;28;20289;-72
2023/03/04 08:09:46;;;;;;;;;;;;;;;;;;5033476;28;19912;-72
2023/03/04 08:12:12;;;;;;;;;;;;;;;;;;5032965;28;20299;-72
2023/03/04 08:14:38;;;;;;;;;;;;;;;;;;5033877;28;19916;-71
2023/03/04 08:17:04;;;;;;;;;;;;;;;;;;5032859;28;19951;-72
2023/03/04 08:19:30;;;;;;;;;;;;;;;;;;5034250;28;20322;-72
2023/03/04 08:21:56;;;;;;;;;;;;;;;;;;5051905;28;19965;-73
2023/03/04 08:24:22;;;;;;;;;;;;;;;;;;5052896;28;19966;-73
2023/03/04 08:26:48;;;;;;;;;;;;;;;;;;5033949;28;20434;-74
2023/03/04 08:29:14;;;;;;;;;;;;;;;;;;5042608;28;19908;-73
2023/03/04 08:31:40;;;;;;;;;;;;;;;;;;5051513;28;19954;-73
2023/03/04 08:34:06;;;;;;;;;;;;;;;;;;5049792;28;19936;-73
2023/03/04 08:36:32;;;;;;;;;;;;;;;;;;5032413;28;19920;-72
2023/03/04 08:38:58;;;;;;;;;;;;;;;;;;5032571;28;19905;-72
2023/03/04 08:41:26;;;;;;;;;;;;;;;;;;5033433;28;19905;-72
2023/03/04 08:43:52;;;;;;;;;;;;;;;;;;5032282;28;19909;-73
2023/03/04 08:46:18;;;;;;;;;;;;;;;;;;5047661;28;19966;-74
2023/03/04 08:48:43;;;;;;;;;;;;;;;;;;5043518;28;19909;-72
2023/03/04 08:51:09;;;;;;;;;;;;;;;;;;5032115;28;19912;-71
2023/03/04 08:53:35;;;;;;;;;;;;;;;;;;5048984;28;19947;-73
2023/03/04 08:56:01;;;;;;;;;;;;;;;;;;5052062;28;20380;-71
2023/03/04 08:58:27;;;;;;;;;;;;;;;;;;5052088;28;19905;-72
2023/03/04 09:00:53;;;;;;;;;;;;;;;;;;5052051;28;20311;-73
2023/03/04 09:03:19;;;;;;;;;;;;;;;;;;5044876;28;19950;-74
2023/03/04 09:05:45;;;;;;;;;;;;;;;;;;5031759;28;19909;-72
2023/03/04 09:08:11;;;;;;;;;;;;;;;;;;5040091;28;19904;-72
2023/03/04 09:10:37;;;;;;;;;;;;;;;;;;5051789;28;19913;-73
2023/03/04 09:13:03;;;;;;;;;;;;;;;;;;5051808;28;19913;-73
2023/03/04 09:15:29;;;;;;;;;;;;;;;;;;5050978;28;19904;-72
2023/03/04 09:17:54;;;;;;;;;;;;;;;;;;5033733;28;19951;-73
2023/03/04 09:20:21;;;;;;;;;;;;;;;;;;5031604;28;20329;-74
2023/03/04 09:22:47;;;;;;;;;;;;;;;;;;5030905;28;20279;-73
2023/03/04 09:25:14;;;;;;;;;;;;;;;;;;5035589;28;19943;-73
2023/03/04 09:27:40;;;;;;;;;;;;;;;;;;5051260;28;20403;-73
2023/03/04 09:30:06;;;;;;;;;;;;;;;;;;5051712;28;19987;-74
2023/03/04 09:32:32;;;;;;;;;;;;;;;;;;5047923;28;20506;-74
2023/03/04 09:34:57;;;;;;;;;;;;;;;;;;5031534;28;19912;-74
2023/03/04 09:37:23;;;;;;;;;;;;;;;;;;5044776;28;19923;-73
2023/03/04 09:39:50;;;;;;;;;;;;;;;;;;5051450;28;19905;-73
2023/03/04 09:42:15;;;;;;;;;;;;;;;;;;5049803;28;20161;-74
2023/03/04 09:44:41;;;;;;;;;;;;;;;;;;5051506;28;19995;-74
2023/03/04 09:47:07;;;;;;;;;;;;;;;;;;5038528;28;20491;-73
2023/03/04 09:49:33;;;;;;;;;;;;;;;;;;5033243;28;19905;-74
2023/03/04 09:51:59;;;;;;;;;;;;;;;;;;5031049;28;19912;-73
2023/03/04 09:54:25;;;;;;;;;;;;;;;;;;5031422;28;19993;-74
2023/03/04 09:56:51;;;;;;;;;;;;;;;;;;5031294;28;20365;-73
2023/03/04 09:59:17;;;;;;;;;;;;;;;;;;5042610;28;20477;-72
2023/03/04 10:01:43;;;;;;;;;;;;;;;;;;5044534;28;20356;-75
2023/03/04 10:04:09;;;;;;;;;;;;;;;;;;5044600;28;19905;-73
2023/03/04 10:06:35;;;;;;;;;;;;;;;;;;5035805;28;19933;-72
2023/03/04 10:09:01;;;;;;;;;;;;;;;;;;5043368;28;20363;-71
2023/03/04 10:11:27;;;;;;;;;;;;;;;;;;5031261;28;19929;-72
2023/03/04 10:13:53;;;;;;;;;;;;;;;;;;5037302;28;20530;-72
2023/03/04 10:16:19;;;;;;;;;;;;;;;;;;5043454;28;20384;-73
2023/03/04 10:18:44;;;;;;;;;;;;;;;;;;5040742;28;19995;-72
2023/03/04 10:21:13;;;;;;;;;;;;;;;;;;5031371;28;19905;-72
2023/03/04 10:23:40;;;;;;;;;;;;;;;;;;5041216;28;19909;-71
2023/03/04 10:26:06;;;;;;;;;;;;;;;;;;5033824;28;19913;-71
2023/03/04 10:28:31;;;;;;;;;;;;;;;;;;5053880;28;19962;-72
2023/03/04 10:30:57;;;;;;;;;;;;;;;;;;5034747;28;19909;-73
2023/03/04 10:33:23;;;;;;;;;;;;;;;;;;5035554;28;19905;-73
2023/03/04 10:35:49;;;;;;;;;;;;;;;;;;5054528;28;19932;-72
2023/03/04 10:38:15;;;;;;;;;;;;;;;;;;5040692;28;19909;-72
2023/03/04 10:40:41;;;;;;;;;;;;;;;;;;5036433;28;20263;-72
2023/03/04 10:43:07;;;;;;;;;;;;;;;;;;5039378;28;19920;-71
2023/03/04 10:45:35;;;;;;;;;;;;;;;;;;5043447;28;19908;-73
2023/03/04 10:48:01;;;;;;;;;;;;;;;;;;5055150;28;19904;-72
2023/03/04 10:50:27;;;;;;;;;;;;;;;;;;5034459;28;19911;-69
2023/03/04 10:52:54;;;;;;;;;;;;;;;;;;5034236;28;19912;-72
2023/03/04 10:55:20;;;;;;;;;;;;;;;;;;5034412;28;20000;-72
2023/03/04 10:57:46;;;;;;;;;;;;;;;;;;5045195;28;20015;-71
2023/03/04 11:00:12;;;;;;;;;;;;;;;;;;5054032;28;19912;-76
2023/03/04 11:02:38;;;;;;;;;;;;;;;;;;5053597;28;19909;-77
2023/03/04 11:05:04;;;;;;;;;;;;;;;;;;5054065;28;19905;-78
2023/03/04 11:07:30;;;;;;;;;;;;;;;;;;5046232;28;19947;-77
2023/03/04 11:09:55;;;;;;;;;;;;;;;;;;5034148;28;19999;-74
2023/03/04 11:12:21;;;;;;;;;;;;;;;;;;5034031;28;19923;-77
2023/03/04 11:14:48;;;;;;;;;;;;;;;;;;5034021;28;20399;-76
2023/03/04 11:17:13;;;;;;;;;;;;;;;;;;5034117;28;19992;-76
2023/03/04 11:19:39;;;;;;;;;;;;;;;;;;5034046;28;19940;-76
2023/03/04 11:22:05;;;;;;;;;;;;;;;;;;5035380;28;20269;-76
2023/03/04 11:24:31;;;;;;;;;;;;;;;;;;5043300;28;19908;-77
2023/03/04 11:26:57;;;;;;;;;;;;;;;;;;5053543;28;20319;-77
2023/03/04 11:29:23;;;;;;;;;;;;;;;;;;5053752;28;20365;-78
2023/03/04 11:31:49;;;;;;;;;;;;;;;;;;5053644;28;19911;-77
2023/03/04 11:34:15;;;;;;;;;;;;;;;;;;5053411;28;19905;-77
2023/03/04 11:36:41;;;;;;;;;;;;;;;;;;5052944;28;19969;-76
2023/03/04 11:39:07;;;;;;;;;;;;;;;;;;5053050;28;19905;-76
2023/03/04 11:41:34;;;;;;;;;;;;;;;;;;5035087;28;19908;-76
2023/03/04 11:44:00;;;;;;;;;;;;;;;;;;5033300;28;20004;-76
2023/03/04 11:46:26;;;;;;;;;;;;;;;;;;5033441;28;19955;-77
2023/03/04 11:48:52;;;;;;;;;;;;;;;;;;5033325;28;19905;-76
2023/03/04 11:51:19;;;;;;;;;;;;;;;;;;5033612;28;19912;-75
2023/03/04 11:53:45;;;;;;;;;;;;;;;;;;5033344;28;19905;-76
2023/03/04 11:56:11;;;;;;;;;;;;;;;;;;5033230;28;20302;-77
2023/03/04 11:58:37;;;;;;;;;;;;;;;;;;5032636;28;19916;-75
2023/03/04 12:01:02;;;;;;;;;;;;;;;;;;5033153;28;20336;-77
2023/03/04 12:03:28;;;;;;;;;;;;;;;;;;5033076;28;19932;-77
2023/03/04 12:05:54;;;;;;;;;;;;;;;;;;5033217;28;19905;-78
2023/03/04 12:08:20;;;;;;;;;;;;;;;;;;5031535;28;19901;-76
2023/03/04 12:10:46;;;;;;;;;;;;;;;;;;5032799;28;20327;-77
2023/03/04 12:13:12;;;;;;;;;;;;;;;;;;5032911;28;19932;-76
2023/03/04 12:15:38;;;;;;;;;;;;;;;;;;5047604;28;19915;-79
2023/03/04 12:18:04;;;;;;;;;;;;;;;;;;5052790;28;20309;-77
2023/03/04 12:20:30;;;;;;;;;;;;;;;;;;5052614;28;20396;-79
2023/03/04 12:22:56;;;;;;;;;;;;;;;;;;5052486;28;19935;-76
2023/03/04 12:32:39;;;;;;;;;;;;;;;;;;5030195;28;20321;-78
2023/03/04 12:35:05;;;;;;;;;;;;;;;;;;5032371;28;20251;-77
2023/03/04 12:37:31;;;;;;;;;;;;;;;;;;5032743;28;19971;-77
2023/03/04 12:39:57;;;;;;;;;;;;;;;;;;5032612;28;20007;-79
2023/03/04 12:42:22;;;;;;;;;;;;;;;;;;5032883;28;20337;-78
2023/03/04 12:44:48;;;;;;;;;;;;;;;;;;5032189;28;19912;-79
2023/03/04 12:47:15;;;;;;;;;;;;;;;;;;5031752;28;19954;-76
2023/03/04 12:49:41;;;;;;;;;;;;;;;;;;5031502;28;19913;-78
2023/03/04 12:52:07;;;;;;;;;;;;;;;;;;5030900;28;20123;-78
2023/03/04 12:54:33;;;;;;;;;;;;;;;;;;5031906;28;19996;-77
2023/03/04 12:56:59;;;;;;;;;;;;;;;;;;5032107;28;20012;-77
2023/03/04 12:59:25;;;;;;;;;;;;;;;;;;5032527;28;19955;-77
2023/03/04 13:01:51;;;;;;;;;;;;;;;;;;5031806;28;20277;-78
2023/03/04 13:04:17;;;;;;;;;;;;;;;;;;5032309;28;19995;-74
2023/03/04 13:06:44;;;;;;;;;;;;;;;;;;5031916;28;19905;-77
2023/03/04 13:09:10;;;;;;;;;;;;;;;;;;5031819;28;19905;-78
2023/03/04 13:11:36;;;;;;;;;;;;;;;;;;5031833;28;19913;-78
2023/03/04 13:14:02;;;;;;;;;;;;;;;;;;5030342;28;19905;-77
2023/03/04 13:16:28;;;;;;;;;;;;;;;;;;5032524;28;20291;-78
2023/03/04 13:18:54;;;;;;;;;;;;;;;;;;5031495;28;20368;-77
2023/03/04 13:21:20;;;;;;;;;;;;;;;;;;5031254;28;19909;-77
2023/03/04 13:23:46;;;;;;;;;;;;;;;;;;5031712;28;19995;-78
2023/03/04 13:26:12;;;;;;;;;;;;;;;;;;5031445;28;20357;-77
2023/03/04 13:28:38;;;;;;;;;;;;;;;;;;5031647;28;19905;-77
2023/03/04 13:31:05;;;;;;;;;;;;;;;;;;5031711;28;19905;-78
2023/03/04 13:33:31;;;;;;;;;;;;;;;;;;5031393;28;19951;-79
2023/03/04 13:35:59;;;;;;;;;;;;;;;;;;5039316;28;19921;-78
2023/03/04 13:38:25;;;;;;;;;;;;;;;;;;5051376;28;19984;-78
2023/03/04 13:40:51;;;;;;;;;;;;;;;;;;5044114;28;19967;-77
2023/03/04 13:43:17;;;;;;;;;;;;;;;;;;5031229;28;19909;-77
2023/03/04 13:45:43;;;;;;;;;;;;;;;;;;5031708;28;19905;-78
2023/03/04 13:48:09;;;;;;;;;;;;;;;;;;5031462;28;19962;-78
2023/03/04 13:50:34;;;;;;;;;;;;;;;;;;5031318;28;20365;-78
2023/03/04 13:53:00;;;;;;;;;;;;;;;;;;5030272;28;19902;-78
2023/03/04 13:55:26;;;;;;;;;;;;;;;;;;5034180;28;19916;-77
2023/03/04 13:57:52;;;;;;;;;;;;;;;;;;5033006;28;19958;-78
2023/03/04 14:00:18;;;;;;;;;;;;;;;;;;5031213;28;19909;-77
2023/03/04 14:02:44;;;;;;;;;;;;;;;;;;5038352;28;19912;-82
2023/03/04 14:05:10;;;;;;;;;;;;;;;;;;5052450;28;19908;-80
2023/03/04 14:07:36;;;;;;;;;;;;;;;;;;5055242;28;19913;-79
2023/03/04 14:10:03;;;;;;;;;;;;;;;;;;5055752;28;20367;-80
2023/03/04 14:12:29;;;;;;;;;;;;;;;;;;5052949;28;20278;-78
2023/03/04 14:14:55;;;;;;;;;;;;;;;;;;5050496;28;19909;-80
2023/03/04 14:17:21;;;;;;;;;;;;;;;;;;5035311;28;19917;-75
2023/03/04 14:19:47;;;;;;;;;;;;;;;;;;5035193;28;19917;-75
2023/03/04 14:22:13;;;;;;;;;;;;;;;;;;5048376;28;19913;-77
2023/03/04 14:24:39;;;;;;;;;;;;;;;;;;5047548;28;20011;-76
2023/03/04 14:27:05;;;;;;;;;;;;;;;;;;5045832;28;20454;-78
2023/03/04 14:29:31;;;;;;;;;;;;;;;;;;5055000;28;19958;-78
2023/03/04 14:31:57;;;;;;;;;;;;;;;;;;5054534;28;19909;-78
2023/03/04 14:34:22;;;;;;;;;;;;;;;;;;5042204;28;19951;-78
2023/03/04 14:36:48;;;;;;;;;;;;;;;;;;5035861;28;19917;-77
2023/03/04 14:39:14;;;;;;;;;;;;;;;;;;5041509;28;20390;-77
2023/03/04 14:41:42;;;;;;;;;;;;;;;;;;5042628;28;20265;-77
2023/03/04 14:44:07;;;;;;;;;;;;;;;;;;5044522;28;19955;-79
2023/03/04 14:46:33;;;;;;;;;;;;;;;;;;5046230;28;19909;-79
2023/03/04 14:48:59;;;;;;;;;;;;;;;;;;5044207;28;19917;-78
2023/03/04 14:51:25;;;;;;;;;;;;;;;;;;5054428;28;19904;-78
2023/03/04 14:53:51;;;;;;;;;;;;;;;;;;5045485;28;19915;-79
2023/03/04 14:56:17;;;;;;;;;;;;;;;;;;5049997;28;19956;-77
2023/03/04 14:58:43;;;;;;;;;;;;;;;;;;5047937;28;19909;-76
2023/03/04 15:01:09;;;;;;;;;;;;;;;;;;5053947;28;19915;-79
2023/03/04 15:03:35;;;;;;;;;;;;;;;;;;5040360;28;19912;-78
2023/03/04 15:06:01;;;;;;;;;;;;;;;;;;5039440;28;20334;-78
2023/03/04 15:08:26;;;;;;;;;;;;;;;;;;5046242;28;19912;-77
2023/03/04 15:10:52;;;;;;;;;;;;;;;;;;5041942;28;19955;-78
2023/03/04 15:13:18;;;;;;;;;;;;;;;;;;5034849;28;20266;-78
2023/03/04 15:15:44;;;;;;;;;;;;;;;;;;5041826;28;19909;-78
2023/03/04 15:18:10;;;;;;;;;;;;;;;;;;5046775;28;19905;-78
2023/03/04 15:20:36;;;;;;;;;;;;;;;;;;5053584;28;20293;-78
2023/03/04 15:23:02;;;;;;;;;;;;;;;;;;5041981;28;19966;-78
2023/03/04 15:25:28;;;;;;;;;;;;;;;;;;5052999;28;19954;-79
2023/03/04 15:27:54;;;;;;;;;;;;;;;;;;5056738;28;19908;-78
2023/03/04 15:30:20;;;;;;;;;;;;;;;;;;5057875;28;19987;-78
2023/03/04 15:32:46;;;;;;;;;;;;;;;;;;5035750;28;19911;-78
2023/03/04 15:35:12;;;;;;;;;;;;;;;;;;5053735;28;19904;-78
2023/03/04 15:37:38;;;;;;;;;;;;;;;;;;5053075;28;20694;-78
2023/03/04 15:40:03;;;;;;;;;;;;;;;;;;5064431;28;19951;-78
2023/03/04 15:42:29;;;;;;;;;;;;;;;;;;5053343;28;19991;-77
2023/03/04 15:44:55;;;;;;;;;;;;;;;;;;5062487;28;19915;-75
2023/03/04 15:47:21;;;;;;;;;;;;;;;;;;5069354;28;19908;-75
2023/03/04 15:49:47;;;;;;;;;;;;;;;;;;5062081;28;20288;-75
2023/03/04 15:52:13;;;;;;;;;;;;;;;;;;5061372;28;19919;-77
2023/03/04 15:54:39;;;;;;;;;;;;;;;;;;5036096;28;19909;-75
2023/03/04 15:57:05;;;;;;;;;;;;;;;;;;5033172;28;19996;-77
2023/03/04 15:59:31;;;;;;;;;;;;;;;;;;5045982;28;20639;-74
2023/03/04 16:01:57;;;;;;;;;;;;;;;;;;5046869;28;19905;-76
2023/03/04 16:04:23;;;;;;;;;;;;;;;;;;5051671;28;19908;-72
2023/03/04 16:06:49;;;;;;;;;;;;;;;;;;5058971;28;20005;-75
2023/03/04 16:09:15;;;;;;;;;;;;;;;;;;5053076;28;19909;-78
2023/03/04 16:11:43;;;;;;;;;;;;;;;;;;5050437;28;19944;-77
2023/03/04 16:14:09;;;;;;;;;;;;;;;;;;5049187;28;19913;-73
2023/03/04 16:16:34;;;;;;;;;;;;;;;;;;5052741;28;19920;-77
2023/03/04 16:19:00;;;;;;;;;;;;;;;;;;5044726;28;20279;-75
2023/03/04 16:21:26;;;;;;;;;;;;;;;;;;5063695;28;19912;-77
2023/03/04 16:23:53;;;;;;;;;;;;;;;;;;5052311;28;19908;-78
2023/03/04 16:26:19;;;;;;;;;;;;;;;;;;5034397;28;19951;-74
2023/03/04 16:28:46;;;;;;;;;;;;;;;;;;5039997;28;19947;-75
2023/03/04 16:31:12;;;;;;;;;;;;;;;;;;5052545;28;20373;-71
2023/03/04 16:33:38;;;;;;;;;;;;;;;;;;5052359;28;19954;-71
2023/03/04 16:36:04;;;;;;;;;;;;;;;;;;5052037;28;19942;-72
2023/03/04 16:38:30;;;;;;;;;;;;;;;;;;5048134;28;19939;-72
2023/03/04 16:40:56;;;;;;;;;;;;;;;;;;5032326;28;19905;-72
2023/03/04 16:43:22;;;;;;;;;;;;;;;;;;5035814;28;20268;-72